Van Alstyne, Texas
Current Conditions -  °F | °C
As of 8:53 AM on Saturday 25 Oct 2014 (Local Time) from KTKI Reporting Station
Clear Clear  
Wind Chill: 65°   Ceiling: Unl
Heat Index: 65°   Visibility: 10mi
Dew Point: 59°   Wind: 8mph
Humidity: 81%   Direction: 180°S
Pressure: 30.13"   Gusts: NA
Location:  33.42°N, 96.58°W
Report Text: KTKI 251353Z 18007KT 10SM CLR 18/15 A3013 RMK AO2 SLP205 T01830150
Loading
Personal Weather Stations






























Interactive Weather Map
Tropical Storm Tracking
New forecast layout! Learn more

10-Day Weather Forecast

Advertisements
Track Severe Weather on mobile